Time;durP1;ratioP1;P1;durP2;ratioP2;P2;SDS_P1;SDS_P2;PMS_P1;PMS_P2;Temp;Humidity;BMP_temperature;BMP_pressure;BME280_temperature;BME280_humidity;BME280_pressure;Samples;Min_cycle;Max_cycle;Signal;HPM_P1;HPM_P2
2023/04/03 00:01:10;;;;;;;2.70;0.73;;;3.90;62.90;;;;;;5015689;28;20035;-72
2023/04/03 00:03:36;;;;;;;2.63;1.10;;;3.80;63.00;;;;;;4999113;28;20037;-72
2023/04/03 00:06:03;;;;;;;7.40;1.73;;;3.80;63.10;;;;;;5015838;28;20056;-73
2023/04/03 00:08:32;;;;;;;1.70;0.82;;;3.80;63.20;;;;;;5016084;28;20077;-72
2023/04/03 00:10:58;;;;;;;1.55;0.70;;;3.80;63.40;;;;;;5016233;28;20048;-72
2023/04/03 00:13:25;;;;;;;2.15;0.82;;;3.80;63.50;;;;;;4999241;28;20123;-73
2023/04/03 00:15:51;;;;;;;3.50;0.82;;;3.80;63.40;;;;;;5032359;28;20397;-73
2023/04/03 00:18:17;;;;;;;2.78;1.00;;;3.70;63.40;;;;;;5032010;28;20038;-73
2023/04/03 00:20:43;;;;;;;2.10;0.80;;;3.70;63.30;;;;;;5032514;28;20069;-72
2023/04/03 00:23:09;;;;;;;2.97;0.90;;;3.70;63.30;;;;;;5016136;28;20385;-73
2023/04/03 00:25:35;;;;;;;3.17;1.10;;;3.70;63.40;;;;;;5032459;28;20384;-73
2023/04/03 00:28:01;;;;;;;5.30;0.98;;;3.70;63.40;;;;;;5032197;28;20029;-73
2023/04/03 00:30:27;;;;;;;1.17;0.60;;;3.60;63.50;;;;;;5032110;28;20444;-72
2023/04/03 00:32:52;;;;;;;3.42;1.13;;;3.60;63.60;;;;;;5015964;28;20084;-73
2023/04/03 00:35:20;;;;;;;1.60;0.90;;;3.60;63.60;;;;;;5031884;28;20381;-73
2023/04/03 00:37:46;;;;;;;2.17;0.80;;;3.60;63.70;;;;;;5031704;28;20045;-72
2023/04/03 00:40:14;;;;;;;3.60;0.80;;;3.60;63.90;;;;;;5015325;28;20037;-72
2023/04/03 00:42:41;;;;;;;3.85;1.00;;;3.50;63.90;;;;;;5048210;28;20033;-72
2023/04/03 00:45:29;;;;;;;2.97;0.80;;;3.60;63.90;;;;;;5015431;28;20041;-73
2023/04/03 00:47:56;;;;;;;2.03;0.82;;;3.50;64.20;;;;;;5015699;28;20045;-73
2023/04/03 00:50:23;;;;;;;2.67;0.88;;;3.50;64.70;;;;;;4998779;28;20476;-73
2023/04/03 00:52:49;;;;;;;3.00;0.98;;;3.50;64.90;;;;;;4999042;28;20191;-73
2023/04/03 00:55:16;;;;;;;4.78;1.00;;;3.50;64.80;;;;;;5031963;28;20396;-72
2023/04/03 00:57:42;;;;;;;2.65;0.75;;;3.50;64.70;;;;;;5031644;28;20050;-73
2023/04/03 01:00:12;;;;;;;2.90;0.82;;;3.60;64.60;;;;;;5015081;28;21636;-73
2023/04/03 01:02:40;;;;;;;1.52;0.80;;;3.50;64.90;;;;;;5015364;28;20113;-73
2023/04/03 01:05:06;;;;;;;2.27;0.87;;;3.50;64.80;;;;;;5014857;28;20560;-73
2023/04/03 01:07:36;;;;;;;2.10;0.75;;;3.50;64.90;;;;;;5015376;28;20483;-72
2023/04/03 01:10:06;;;;;;;2.00;0.98;;;3.60;65.10;;;;;;5014910;28;20404;-72
2023/04/03 01:12:37;;;;;;;1.92;0.77;;;3.50;64.90;;;;;;5031396;28;20034;-73
2023/04/03 01:15:25;;;;;;;2.42;0.73;;;3.50;64.80;;;;;;5031643;28;20052;-73
2023/04/03 01:17:56;;;;;;;2.88;0.65;;;3.50;64.90;;;;;;5013902;28;20041;-72
2023/04/03 01:20:36;;;;;;;1.73;0.73;;;3.50;65.20;;;;;;5015075;28;20049;-72
2023/04/03 01:23:21;;;;;;;1.92;0.90;;;3.50;65.00;;;;;;5047919;28;20168;-73
2023/04/03 01:25:49;;;;;;;1.48;0.63;;;3.50;64.50;;;;;;5014681;28;20052;-72
2023/04/03 01:28:26;;;;;;;2.65;0.60;;;3.40;64.50;;;;;;5014543;28;20042;-72
2023/04/03 01:31:10;;;;;;;2.97;1.05;;;3.40;64.50;;;;;;5014916;28;20048;-73
2023/04/03 01:33:37;;;;;;;3.10;0.77;;;3.30;64.40;;;;;;5014360;28;20566;-73
2023/04/03 01:36:03;;;;;;;2.90;0.93;;;3.30;64.40;;;;;;5014254;28;20473;-72
2023/04/03 01:38:29;;;;;;;5.43;1.00;;;3.30;64.60;;;;;;5047776;28;20037;-72
2023/04/03 01:40:55;;;;;;;2.17;0.80;;;3.20;64.60;;;;;;5031269;28;20034;-72
2023/04/03 01:43:21;;;;;;;3.03;0.90;;;3.20;64.70;;;;;;4998255;28;20038;-72
2023/04/03 01:45:49;;;;;;;1.73;0.80;;;3.10;64.80;;;;;;5014803;28;20075;-73
2023/04/03 01:48:15;;;;;;;3.83;0.80;;;3.10;64.90;;;;;;4982430;28;20052;-73
2023/04/03 01:50:41;;;;;;;2.63;0.90;;;3.10;65.00;;;;;;4998267;28;20133;-72
2023/04/03 01:53:07;;;;;;;3.70;0.70;;;3.00;64.90;;;;;;4998316;28;20463;-72
2023/04/03 01:55:32;;;;;;;3.07;0.80;;;3.00;65.00;;;;;;5014783;28;20366;-72
2023/04/03 01:57:58;;;;;;;2.40;1.00;;;2.90;65.10;;;;;;5014730;28;20640;-73
2023/04/03 02:00:24;;;;;;;2.20;1.00;;;2.90;65.40;;;;;;5047517;28;20033;-74
2023/04/03 02:02:50;;;;;;;4.07;1.00;;;2.80;65.60;;;;;;5047390;28;20038;-74
2023/04/03 02:05:15;;;;;;;2.00;0.70;;;2.80;65.90;;;;;;4994964;28;20382;-74
2023/04/03 02:07:41;;;;;;;2.60;0.70;;;2.80;65.90;;;;;;5044404;28;20120;-74
2023/04/03 02:10:07;;;;;;;3.25;0.95;;;2.80;66.00;;;;;;5044423;28;20064;-74
2023/04/03 02:12:33;;;;;;;4.47;1.63;;;2.70;66.10;;;;;;4994835;28;20042;-74
2023/04/03 02:14:59;;;;;;;2.20;0.87;;;2.70;66.20;;;;;;5044676;28;20041;-74
2023/04/03 02:17:24;;;;;;;4.90;1.30;;;2.70;66.30;;;;;;4994858;28;20038;-74
2023/04/03 02:19:50;;;;;;;2.43;0.70;;;2.60;66.30;;;;;;4995125;28;20065;-74
2023/04/03 02:22:16;;;;;;;1.73;0.80;;;2.60;66.50;;;;;;4978202;28;20042;-74
2023/04/03 02:24:42;;;;;;;3.50;0.90;;;2.60;66.60;;;;;;5044346;28;20037;-74
2023/04/03 02:27:08;;;;;;;2.43;0.80;;;2.60;66.90;;;;;;5027932;28;20080;-74
2023/04/03 02:29:33;;;;;;;3.77;0.97;;;2.50;67.00;;;;;;5046786;28;20088;-74
2023/04/03 02:31:59;;;;;;;3.33;1.00;;;2.50;67.10;;;;;;4998722;28;20100;-74
2023/04/03 02:34:25;;;;;;;4.00;1.17;;;2.50;67.20;;;;;;5047907;28;20570;-74
2023/04/03 02:36:50;;;;;;;2.67;1.00;;;2.50;67.20;;;;;;5014809;28;20099;-74
2023/04/03 02:39:16;;;;;;;5.77;1.50;;;2.50;67.30;;;;;;5031309;28;20488;-74
2023/04/03 02:41:42;;;;;;;2.47;0.93;;;2.50;67.30;;;;;;5031423;28;20241;-74
2023/04/03 02:44:10;;;;;;;4.40;1.33;;;2.40;67.30;;;;;;5047513;28;20489;-74
2023/04/03 02:46:36;;;;;;;3.90;1.20;;;2.40;67.40;;;;;;5031022;28;20034;-74
2023/04/03 02:49:02;;;;;;;2.60;0.97;;;2.40;67.60;;;;;;5014714;28;20052;-74
2023/04/03 02:51:28;;;;;;;3.87;1.07;;;2.40;67.80;;;;;;5014619;28;20048;-74
2023/04/03 02:53:54;;;;;;;2.53;1.00;;;2.30;67.80;;;;;;4998007;28;20045;-74
2023/04/03 02:56:21;;;;;;;4.40;1.20;;;2.30;68.00;;;;;;4997982;28;20536;-74
2023/04/03 02:58:46;;;;;;;3.50;1.10;;;2.30;68.10;;;;;;5030739;28;20088;-74
2023/04/03 03:01:12;;;;;;;4.17;1.50;;;2.30;68.30;;;;;;5030672;28;20066;-74
2023/04/03 03:03:38;;;;;;;4.60;1.30;;;2.20;68.40;;;;;;5049635;28;20030;-74
2023/04/03 03:06:06;;;;;;;2.60;1.33;;;2.20;68.60;;;;;;5033948;28;20041;-74
2023/04/03 03:08:32;;;;;;;3.63;1.70;;;2.20;68.80;;;;;;5017425;28;20167;-74
2023/04/03 03:10:58;;;;;;;3.07;1.40;;;2.10;68.80;;;;;;5050248;28;20041;-74
2023/04/03 03:13:24;;;;;;;5.03;1.73;;;2.10;68.90;;;;;;5017380;28;20120;-74
2023/04/03 03:15:50;;;;;;;3.57;1.00;;;2.10;68.90;;;;;;5017059;28;20045;-74
2023/04/03 03:18:16;;;;;;;3.80;1.60;;;2.10;69.20;;;;;;5016893;28;20107;-74
2023/04/03 03:20:42;;;;;;;4.07;1.10;;;2.10;69.20;;;;;;5000962;28;20518;-74
2023/04/03 03:23:07;;;;;;;3.20;1.20;;;2.00;69.30;;;;;;5017193;28;20064;-74
2023/04/03 03:25:37;;;;;;;3.47;1.00;;;2.00;69.50;;;;;;5017118;28;20041;-74
2023/04/03 03:28:02;;;;;;;3.07;1.20;;;2.00;69.60;;;;;;5016748;28;20539;-74
2023/04/03 03:30:28;;;;;;;4.70;1.40;;;2.00;69.60;;;;;;5017003;28;20037;-74
2023/04/03 03:32:54;;;;;;;3.33;1.30;;;2.00;69.80;;;;;;5017056;28;20045;-74
2023/04/03 03:35:19;;;;;;;4.37;1.20;;;2.00;69.80;;;;;;5001093;28;20053;-74
2023/04/03 03:37:45;;;;;;;3.73;1.10;;;2.00;69.80;;;;;;5016609;28;20048;-74
2023/04/03 03:40:12;;;;;;;4.30;1.00;;;2.00;69.90;;;;;;4983888;28;20096;-74
2023/04/03 03:42:38;;;;;;;2.80;1.40;;;2.00;69.90;;;;;;5016919;28;20388;-74
2023/04/03 03:45:05;;;;;;;1.90;1.20;;;1.90;69.90;;;;;;5016874;28;20041;-74
2023/04/03 03:47:31;;;;;;;2.80;0.90;;;1.90;70.00;;;;;;5000237;28;20078;-74
2023/04/03 03:49:56;;;;;;;2.53;1.03;;;1.90;70.40;;;;;;5016787;28;20068;-74
2023/04/03 03:52:22;;;;;;;3.20;1.13;;;2.00;70.80;;;;;;5000536;28;20049;-74
2023/04/03 03:54:48;;;;;;;3.00;1.27;;;2.00;71.20;;;;;;5032788;28;20385;-74
2023/04/03 03:57:14;;;;;;;2.73;1.23;;;2.00;71.20;;;;;;5016577;28;20044;-74
2023/04/03 03:59:41;;;;;;;2.70;1.10;;;2.10;71.30;;;;;;5016388;28;20095;-74
2023/04/03 04:02:07;;;;;;;2.10;0.90;;;2.20;71.60;;;;;;5000216;28;20045;-74
2023/04/03 04:04:33;;;;;;;3.17;1.00;;;2.20;71.70;;;;;;5016105;28;20053;-74
2023/04/03 04:07:00;;;;;;;3.27;1.10;;;2.20;71.90;;;;;;5016177;28;20068;-74
2023/04/03 04:09:26;;;;;;;2.70;1.00;;;2.30;72.20;;;;;;5033047;28;20099;-74
2023/04/03 04:11:53;;;;;;;3.30;1.03;;;2.30;72.40;;;;;;5016409;28;20057;-74
2023/04/03 04:14:20;;;;;;;3.70;1.07;;;2.40;72.60;;;;;;5032802;28;20124;-74
2023/04/03 04:16:47;;;;;;;2.23;0.80;;;2.50;72.80;;;;;;5000914;28;20129;-74
2023/04/03 04:19:13;;;;;;;3.10;0.97;;;2.50;72.90;;;;;;5016132;28;20042;-74
2023/04/03 04:21:39;;;;;;;3.23;1.10;;;2.60;72.90;;;;;;5032538;28;20041;-74
2023/04/03 04:24:05;;;;;;;3.90;1.00;;;2.70;73.00;;;;;;4999660;28;20037;-74
2023/04/03 04:26:31;;;;;;;3.97;1.27;;;2.70;72.90;;;;;;5015810;28;20498;-74
2023/04/03 04:28:57;;;;;;;4.33;1.30;;;2.80;72.90;;;;;;5016111;28;20128;-74
2023/04/03 04:31:22;;;;;;;3.33;1.23;;;2.90;72.90;;;;;;5032161;28;20041;-72
2023/04/03 04:33:48;;;;;;;4.87;1.30;;;2.90;72.50;;;;;;4999474;28;20033;-73
2023/04/03 04:36:14;;;;;;;2.77;1.30;;;2.90;72.20;;;;;;5015751;28;20037;-73
2023/04/03 04:38:40;;;;;;;3.17;1.10;;;3.10;72.20;;;;;;4998977;28;20064;-72
2023/04/03 04:41:06;;;;;;;3.43;1.20;;;3.00;71.80;;;;;;5032032;28;20037;-74
2023/04/03 04:43:32;;;;;;;3.33;1.20;;;3.00;71.50;;;;;;5032127;28;20048;-76
2023/04/03 04:46:06;;;;;;;3.13;1.10;;;3.10;71.20;;;;;;5015360;28;20431;-76
2023/04/03 04:48:32;;;;;;;5.10;1.65;;;3.10;70.90;;;;;;5047795;28;20128;-76
2023/04/03 04:50:58;;;;;;;7.00;1.77;;;3.10;70.50;;;;;;5015357;28;20073;-75
2023/04/03 04:53:24;;;;;;;3.23;1.53;;;3.10;70.30;;;;;;5015051;28;20478;-75
2023/04/03 04:55:51;;;;;;;4.13;1.30;;;3.10;69.90;;;;;;5015495;28;20041;-75
2023/04/03 04:58:17;;;;;;;3.50;1.30;;;3.10;69.30;;;;;;5048332;28;20392;-75
2023/04/03 05:00:42;;;;;;;4.30;1.20;;;3.10;68.70;;;;;;5015206;28;20037;-75
2023/04/03 05:03:08;;;;;;;3.97;1.57;;;3.10;68.20;;;;;;5015370;28;20048;-75
2023/04/03 05:05:35;;;;;;;3.77;1.40;;;3.00;67.80;;;;;;4998859;28;20081;-75
2023/04/03 05:08:01;;;;;;;6.23;1.73;;;2.90;67.80;;;;;;4998989;28;20087;-75
2023/04/03 05:10:27;;;;;;;3.97;1.73;;;2.80;67.80;;;;;;5015344;28;20049;-75
2023/04/03 05:12:53;;;;;;;4.73;1.70;;;2.80;67.60;;;;;;5015262;28;20045;-75
2023/04/03 05:15:19;;;;;;;4.67;1.50;;;2.70;67.60;;;;;;5014977;28;20052;-75
2023/04/03 05:17:45;;;;;;;4.47;1.63;;;2.60;67.80;;;;;;4998734;28;20046;-75
2023/04/03 05:20:11;;;;;;;4.80;1.70;;;2.60;67.80;;;;;;4999017;28;20038;-75
2023/04/03 05:22:37;;;;;;;5.33;1.53;;;2.50;67.90;;;;;;5031676;28;20506;-75
2023/04/03 05:25:03;;;;;;;7.33;2.27;;;2.40;67.80;;;;;;4998694;28;20041;-75
2023/04/03 05:27:29;;;;;;;6.20;1.60;;;2.40;67.90;;;;;;5031815;28;20038;-75
2023/04/03 05:29:55;;;;;;;5.13;1.80;;;2.30;68.00;;;;;;5015115;28;20495;-75
2023/04/03 05:32:22;;;;;;;6.30;2.43;;;2.20;68.20;;;;;;5014790;28;20500;-75
2023/04/03 05:34:48;;;;;;;6.50;1.37;;;2.10;68.60;;;;;;5048188;28;20045;-75
2023/04/03 05:37:14;;;;;;;9.57;2.00;;;2.00;68.90;;;;;;5047696;28;20039;-75
2023/04/03 05:39:40;;;;;;;5.13;2.00;;;2.00;69.20;;;;;;5031344;28;20381;-76
2023/04/03 05:42:07;;;;;;;3.17;1.23;;;2.00;69.80;;;;;;5031467;28;20483;-76
2023/04/03 05:44:33;;;;;;;3.20;1.53;;;2.00;70.30;;;;;;5048021;28;20048;-76
2023/04/03 05:46:59;;;;;;;5.43;1.83;;;2.10;70.40;;;;;;5014897;28;20046;-75
2023/04/03 05:49:25;;;;;;;7.43;2.10;;;2.20;70.60;;;;;;5015114;28;20053;-75
2023/04/03 05:51:51;;;;;;;6.23;1.87;;;2.30;70.60;;;;;;4998611;28;20507;-75
2023/04/03 05:54:19;;;;;;;5.23;2.20;;;2.30;70.60;;;;;;5014977;28;20179;-75
2023/04/03 05:56:45;;;;;;;8.00;1.97;;;2.30;70.40;;;;;;4998400;28;20053;-75
2023/04/03 05:59:10;;;;;;;4.50;1.50;;;2.40;70.50;;;;;;5015116;28;20045;-75
2023/04/03 06:01:37;;;;;;;6.63;1.50;;;2.40;70.40;;;;;;5014641;28;20067;-75
2023/04/03 06:04:03;;;;;;;6.40;1.90;;;2.50;70.40;;;;;;5049278;28;20085;-75
2023/04/03 06:06:48;;;;;;;5.10;1.53;;;2.60;70.50;;;;;;5018711;28;20558;-75
2023/04/03 06:09:16;;;;;;;6.90;1.70;;;2.80;70.50;;;;;;5018652;28;20041;-76
2023/04/03 06:11:42;;;;;;;6.27;1.77;;;2.90;70.30;;;;;;5018540;28;20525;-76
2023/04/03 06:14:08;;;;;;;7.70;2.20;;;3.20;70.20;;;;;;5002511;28;20041;-76
2023/04/03 06:16:34;;;;;;;4.07;1.67;;;3.40;69.90;;;;;;5018386;28;20033;-74
2023/04/03 06:19:00;;;;;;;5.53;1.80;;;3.70;69.50;;;;;;5018253;28;20086;-75
2023/04/03 06:21:26;;;;;;;4.57;1.88;;;3.90;68.30;;;;;;5001772;28;20045;-75
2023/04/03 06:23:52;;;;;;;6.80;2.10;;;4.10;67.70;;;;;;5018393;28;20072;-75
2023/04/03 06:26:18;;;;;;;6.20;2.20;;;4.50;67.50;;;;;;5018484;28;20037;-75
2023/04/03 06:28:43;;;;;;;7.35;2.13;;;4.80;66.80;;;;;;5034628;28;20128;-75
2023/04/03 06:31:09;;;;;;;6.88;2.45;;;5.00;66.10;;;;;;5018325;28;20049;-75
2023/04/03 06:33:35;;;;;;;5.63;1.88;;;5.40;65.00;;;;;;5018482;28;20503;-75
2023/04/03 06:36:04;;;;;;;5.20;1.92;;;5.50;62.80;;;;;;5018268;28;20041;-75
2023/04/03 06:38:31;;;;;;;5.53;1.98;;;5.60;62.40;;;;;;5018047;28;20045;-75
2023/04/03 06:40:57;;;;;;;6.85;1.80;;;5.70;62.40;;;;;;5018130;28;20041;-75
2023/04/03 06:43:22;;;;;;;3.83;1.60;;;5.80;61.80;;;;;;5017949;28;20045;-75
2023/04/03 06:45:48;;;;;;;6.22;1.85;;;5.90;61.00;;;;;;5034418;28;20034;-75
2023/04/03 06:48:14;;;;;;;4.95;1.88;;;5.90;59.90;;;;;;5018054;28;20124;-75
2023/04/03 06:50:40;;;;;;;5.68;2.03;;;5.90;59.30;;;;;;5017746;28;20403;-75
2023/04/03 06:53:06;;;;;;;4.70;1.83;;;5.80;59.20;;;;;;5017855;28;20044;-75
2023/04/03 06:55:32;;;;;;;5.78;2.10;;;5.80;59.10;;;;;;5050924;28;20049;-75
2023/04/03 06:57:59;;;;;;;5.78;1.98;;;5.60;59.00;;;;;;5050816;28;20049;-75
2023/04/03 07:00:24;;;;;;;5.43;1.92;;;5.50;59.00;;;;;;5050654;28;20041;-75
2023/04/03 07:02:51;;;;;;;6.18;2.10;;;5.30;59.10;;;;;;5001394;28;20095;-75
2023/04/03 07:05:17;;;;;;;9.05;2.30;;;5.20;59.60;;;;;;5034070;28;20061;-75
2023/04/03 07:07:43;;;;;;;5.03;2.40;;;5.10;59.80;;;;;;5017667;28;20045;-75
2023/04/03 07:10:09;;;;;;;6.32;1.80;;;5.00;60.40;;;;;;5033686;28;20144;-75
2023/04/03 07:12:35;;;;;;;6.40;1.73;;;4.90;60.50;;;;;;5001242;28;20037;-75
2023/04/03 07:15:01;;;;;;;4.60;1.80;;;4.80;60.90;;;;;;5016563;28;20038;-75
2023/04/03 07:17:27;;;;;;;6.15;1.80;;;4.80;61.20;;;;;;5017197;28;20514;-75
2023/04/03 07:19:53;;;;;;;6.55;1.73;;;4.80;61.10;;;;;;5000891;28;20378;-75
2023/04/03 07:22:18;;;;;;;3.47;1.33;;;4.80;61.30;;;;;;5033742;28;20042;-75
2023/04/03 07:24:44;;;;;;;4.07;1.42;;;4.80;60.70;;;;;;5017447;28;20057;-75
2023/04/03 07:27:12;;;;;;;3.13;1.90;;;4.80;60.30;;;;;;5000897;28;20488;-75
2023/04/03 07:29:38;;;;;;;6.72;2.13;;;4.80;60.00;;;;;;5016948;28;20400;-75
2023/04/03 07:32:06;;;;;;;3.92;1.27;;;4.80;60.40;;;;;;5017490;28;20623;-75
2023/04/03 07:34:32;;;;;;;3.22;1.05;;;4.80;60.50;;;;;;5017111;28;20508;-75
2023/04/03 07:36:58;;;;;;;2.95;1.42;;;4.70;60.10;;;;;;5050049;28;20037;-75
2023/04/03 07:39:25;;;;;;;5.43;1.48;;;4.80;59.90;;;;;;5016984;28;20037;-75
2023/04/03 07:41:51;;;;;;;3.92;1.10;;;4.80;60.20;;;;;;5050282;28;20084;-75
2023/04/03 07:44:17;;;;;;;5.45;1.50;;;4.80;60.40;;;;;;5016711;28;20069;-75
2023/04/03 07:46:43;;;;;;;2.75;1.02;;;4.90;60.30;;;;;;5016875;28;20042;-75
2023/04/03 07:49:09;;;;;;;4.88;1.30;;;4.90;59.30;;;;;;5016604;28;20041;-75
2023/04/03 07:51:36;;;;;;;3.08;1.10;;;5.00;59.10;;;;;;5017169;28;20037;-75
2023/04/03 07:54:02;;;;;;;3.58;1.60;;;5.00;58.00;;;;;;5033193;28;20075;-75
2023/04/03 07:56:28;;;;;;;3.05;0.93;;;5.00;57.40;;;;;;5000438;28;20038;-75
2023/04/03 07:58:53;;;;;;;2.22;0.90;;;5.10;57.00;;;;;;5032784;28;20049;-75
2023/04/03 08:01:19;;;;;;;4.63;1.10;;;5.20;55.90;;;;;;5016473;28;20049;-75
2023/04/03 08:03:45;;;;;;;4.43;1.00;;;5.30;54.80;;;;;;5022864;28;20052;-76
2023/04/03 08:06:11;;;;;;;4.78;1.17;;;5.30;55.00;;;;;;5046163;28;20351;-76
2023/04/03 08:08:37;;;;;;;4.60;1.40;;;5.40;55.00;;;;;;5029618;28;20120;-76
2023/04/03 08:11:03;;;;;;;3.15;1.05;;;5.50;55.20;;;;;;5029635;28;20469;-75
2023/04/03 08:13:30;;;;;;;4.70;1.30;;;5.60;55.20;;;;;;5013368;28;20046;-76
2023/04/03 08:15:57;;;;;;;2.83;0.70;;;5.70;53.80;;;;;;5029703;28;20046;-76
2023/04/03 08:18:24;;;;;;;3.15;0.80;;;5.80;53.30;;;;;;5012824;28;20052;-75
2023/04/03 08:20:51;;;;;;;2.35;0.88;;;5.90;52.70;;;;;;5013313;28;20080;-75
2023/04/03 08:23:17;;;;;;;3.90;0.90;;;6.00;50.70;;;;;;5045807;28;20404;-75
2023/04/03 08:25:44;;;;;;;3.25;0.93;;;6.10;51.70;;;;;;5029408;28;20041;-75
2023/04/03 08:28:11;;;;;;;3.75;1.17;;;6.10;52.20;;;;;;4996476;28;20392;-75
2023/04/03 08:30:39;;;;;;;5.53;1.17;;;6.30;51.50;;;;;;5012971;28;20370;-75
2023/04/03 08:33:05;;;;;;;3.90;1.23;;;6.50;51.10;;;;;;5029280;28;20042;-75
2023/04/03 08:35:31;;;;;;;1.77;0.95;;;6.60;51.60;;;;;;5045797;28;20460;-75
2023/04/03 08:37:57;;;;;;;4.03;1.02;;;6.70;51.20;;;;;;5045659;28;20074;-75
2023/04/03 08:40:24;;;;;;;2.90;0.82;;;6.90;50.20;;;;;;5029167;28;20038;-75
2023/04/03 08:43:21;;;;;;;1.25;0.60;;;7.00;48.30;;;;;;5029422;28;20041;-75
2023/04/03 08:45:53;;;;;;;2.28;0.90;;;7.00;46.60;;;;;;5011882;28;20121;-75
2023/04/03 08:48:27;;;;;;;4.47;1.27;;;7.10;43.90;;;;;;5044756;28;20050;-75
2023/04/03 08:51:00;;;;;;;2.63;0.80;;;7.10;44.50;;;;;;5028910;28;20038;-80
2023/04/03 08:53:31;;;;;;;3.03;0.80;;;7.20;45.90;;;;;;5029177;28;20046;-80
2023/04/03 08:56:02;;;;;;;5.20;1.42;;;7.30;45.50;;;;;;4995798;28;20128;-79
2023/04/03 08:58:31;;;;;;;3.03;1.10;;;7.40;44.70;;;;;;5029599;28;20485;-80
2023/04/03 09:01:04;;;;;;;2.20;0.70;;;7.50;44.20;;;;;;5045873;28;20038;-80
2023/04/03 09:03:33;;;;;;;2.53;0.63;;;7.60;43.20;;;;;;4997264;28;20077;-80
2023/04/03 09:06:13;;;;;;;1.95;0.73;;;7.60;44.40;;;;;;5031912;28;20048;-80
2023/04/03 09:09:16;;;;;;;1.63;0.80;;;7.70;44.60;;;;;;5012302;28;20125;-80
2023/04/03 09:12:08;;;;;;;4.50;1.27;;;7.90;43.70;;;;;;5012399;28;20050;-80
2023/04/03 09:15:01;;;;;;;2.80;0.70;;;8.00;42.80;;;;;;5045423;28;20129;-80
2023/04/03 09:17:51;;;;;;;3.47;1.00;;;8.20;42.50;;;;;;4988760;28;20134;-80
2023/04/03 09:20:25;;;;;;;2.38;0.82;;;8.30;41.10;;;;;;5032076;28;20044;-81
2023/04/03 09:22:53;;;;;;;2.25;0.77;;;8.30;40.30;;;;;;5015491;28;20052;-80
2023/04/03 09:25:34;;;;;;;1.95;0.90;;;8.40;39.90;;;;;;4999039;28;20048;-80
2023/04/03 09:28:01;;;;;;;1.45;0.68;;;8.50;38.90;;;;;;5031669;28;20041;-79
2023/04/03 09:30:28;;;;;;;1.98;0.43;;;8.60;37.60;;;;;;5031571;28;20056;-80
2023/04/03 09:32:55;;;;;;;2.00;1.00;;;8.60;37.60;;;;;;5048492;28;20045;-80
2023/04/03 09:35:36;;;;;;;1.83;0.80;;;8.70;37.30;;;;;;4999069;28;20045;-80
2023/04/03 09:38:22;;;;;;;2.33;0.70;;;8.70;37.30;;;;;;5027415;28;20488;-79
2023/04/03 09:40:51;;;;;;;2.13;0.90;;;8.80;36.30;;;;;;5027538;28;20496;-80
2023/04/03 09:43:27;;;;;;;3.15;1.00;;;8.80;36.50;;;;;;5045385;28;20045;-80
2023/04/03 09:45:54;;;;;;;2.33;0.90;;;8.80;36.20;;;;;;4996738;28;20068;-79
2023/04/03 09:48:23;;;;;;;1.85;0.52;;;8.80;35.80;;;;;;4996362;28;20041;-80
2023/04/03 09:51:01;;;;;;;2.60;0.70;;;8.80;35.80;;;;;;5045632;28;20057;-79
2023/04/03 09:53:37;;;;;;;2.92;0.73;;;8.90;35.40;;;;;;5060511;28;20045;-80
2023/04/03 09:56:22;;;;;;;3.13;0.65;;;9.00;35.60;;;;;;5027853;28;20033;-80
2023/04/03 09:58:50;;;;;;;1.65;0.70;;;9.00;36.80;;;;;;5045607;28;20095;-79
2023/04/03 10:01:23;;;;;;;2.55;0.57;;;9.00;36.10;;;;;;5029081;28;20072;-80
2023/04/03 10:04:07;;;;;;;2.35;0.60;;;9.10;35.60;;;;;;5027988;28;20089;-80
2023/04/03 10:06:46;;;;;;;3.40;0.98;;;9.20;35.60;;;;;;5027940;28;20042;-80
2023/04/03 10:09:30;;;;;;;2.20;0.68;;;9.20;36.30;;;;;;5030629;28;20045;-80
2023/04/03 10:12:05;;;;;;;2.53;0.90;;;9.30;36.80;;;;;;5002061;28;20123;-79
2023/04/03 10:14:40;;;;;;;3.10;0.80;;;9.40;36.50;;;;;;5002308;28;20041;-80
2023/04/03 10:17:20;;;;;;;3.25;0.60;;;9.40;36.30;;;;;;5016970;28;20041;-79
2023/04/03 10:19:53;;;;;;;1.90;0.70;;;9.50;36.40;;;;;;5017006;28;20095;-79
2023/04/03 10:22:51;;;;;;;1.98;0.52;;;9.50;36.10;;;;;;5028113;28;20128;-79
2023/04/03 10:25:20;;;;;;;3.53;1.13;;;9.60;36.10;;;;;;5028505;28;20053;-79
2023/04/03 10:28:05;;;;;;;1.65;0.60;;;9.60;35.70;;;;;;5028399;28;20041;-80
2023/04/03 10:30:40;;;;;;;1.95;0.95;;;9.70;35.70;;;;;;4996502;28;20040;-79
2023/04/03 10:33:20;;;;;;;3.50;1.08;;;9.70;36.30;;;;;;5045576;28;20496;-79
2023/04/03 10:35:58;;;;;;;3.40;0.90;;;9.80;35.90;;;;;;5027987;28;20508;-80
2023/04/03 10:38:38;;;;;;;3.85;1.23;;;9.90;36.00;;;;;;4995551;28;20184;-80
2023/04/03 10:41:41;;;;;;;2.78;0.70;;;10.00;35.60;;;;;;5026006;28;20442;-80
2023/04/03 10:44:44;;;;;;;2.28;0.43;;;10.00;35.40;;;;;;5006902;28;20061;-79
2023/04/03 10:47:20;;;;;;;2.58;0.70;;;10.10;34.90;;;;;;4996139;28;20069;-79
2023/04/03 10:50:06;;;;;;;3.72;1.17;;;10.10;35.60;;;;;;5044739;28;20037;-79
2023/04/03 10:53:17;;;;;;;2.17;0.90;;;10.10;34.60;;;;;;5043662;28;20148;-79
2023/04/03 10:55:55;;;;;;;2.67;0.50;;;10.10;34.00;;;;;;5000537;28;20456;-78
2023/04/03 10:58:30;;;;;;;6.63;0.80;;;10.10;34.30;;;;;;5011316;28;20124;-79
2023/04/03 11:01:02;;;;;;;1.85;0.98;;;10.10;33.30;;;;;;5044712;28;20057;-79
2023/04/03 11:03:40;;;;;;;3.60;0.80;;;10.00;33.50;;;;;;5026649;28;20131;-78
2023/04/03 11:06:10;;;;;;;1.88;0.60;;;10.00;33.20;;;;;;5011428;28;20484;-78
2023/04/03 11:08:55;;;;;;;2.33;0.73;;;10.00;33.80;;;;;;5043952;28;20037;-80
2023/04/03 11:11:35;;;;;;;3.22;0.80;;;10.00;33.30;;;;;;4995984;28;20045;-79
2023/04/03 11:14:28;;;;;;;2.15;0.63;;;10.00;33.30;;;;;;5045815;28;20041;-78
2023/04/03 11:17:03;;;;;;;1.38;0.63;;;10.00;33.50;;;;;;5044827;28;20045;-79
2023/04/03 11:19:41;;;;;;;1.33;0.50;;;10.10;33.80;;;;;;5043730;28;20034;-80
2023/04/03 11:22:26;;;;;;;2.38;0.80;;;10.10;33.90;;;;;;5011642;28;20037;-79
2023/04/03 11:25:19;;;;;;;;;;;10.10;34.30;;;;;;5027985;28;20370;-79
2023/04/03 11:28:05;;;;;;;3.40;0.90;;;10.00;34.30;;;;;;5008281;28;19917;-78
2023/04/03 11:30:40;;;;;;;2.63;0.95;;;10.00;33.70;;;;;;4994039;28;20566;-79
2023/04/03 11:33:16;;;;;;;2.30;0.70;;;10.00;33.90;;;;;;5058202;28;20043;-78
2023/04/03 11:35:49;;;;;;;3.10;1.25;;;10.00;33.70;;;;;;5058238;28;20053;-79
2023/04/03 11:38:29;;;;;;;2.97;0.60;;;10.00;33.80;;;;;;5027609;28;20041;-78
2023/04/03 11:40:56;;;;;;;1.38;0.60;;;10.00;34.30;;;;;;5043861;28;20045;-79
2023/04/03 11:43:32;;;;;;;2.38;0.95;;;10.00;34.80;;;;;;5011380;28;20056;-79
2023/04/03 11:46:01;;;;;;;3.70;0.85;;;10.10;34.80;;;;;;4993005;28;20038;-79
2023/04/03 11:48:31;;;;;;;2.60;0.82;;;10.00;35.00;;;;;;5009857;28;20492;-79
2023/04/03 11:51:01;;;;;;;3.05;0.85;;;10.00;33.70;;;;;;5011421;28;20041;-79
2023/04/03 11:53:35;;;;;;;2.78;0.73;;;10.00;34.20;;;;;;4995118;28;20045;-79
2023/04/03 11:56:02;;;;;;;;;;;10.00;34.60;;;;;;4997366;28;20084;-79
2023/04/03 11:58:33;;;;;;;2.72;0.90;;;10.00;35.30;;;;;;5000464;28;19921;-78
2023/04/03 12:01:04;;;;;;;3.72;1.33;;;10.00;34.70;;;;;;4999571;28;20065;-80
2023/04/03 12:03:55;;;;;;;2.45;0.80;;;10.00;34.90;;;;;;5000604;28;20041;-79
2023/04/03 12:06:27;;;;;;;2.65;0.90;;;10.10;35.10;;;;;;5033114;28;20152;-79
2023/04/03 12:08:55;;;;;;;3.35;0.77;;;10.10;35.50;;;;;;5000838;28;20048;-78
2023/04/03 12:11:29;;;;;;;2.85;1.17;;;10.20;35.40;;;;;;5033434;28;20041;-79
2023/04/03 12:13:55;;;;;;;3.40;1.10;;;10.30;34.90;;;;;;5031403;28;20052;-79
2023/04/03 12:16:21;;;;;;;2.72;0.70;;;10.30;35.50;;;;;;5060470;28;20053;-78
2023/04/03 12:18:53;;;;;;;2.97;0.75;;;10.30;35.10;;;;;;5059668;28;20037;-78
2023/04/03 12:21:26;;;;;;;2.45;0.80;;;10.40;35.60;;;;;;5028733;28;20037;-78
2023/04/03 12:24:08;;;;;;;3.63;1.02;;;10.40;35.10;;;;;;5049684;28;20051;-79
2023/04/03 12:27:02;;;;;;;3.42;0.90;;;10.50;35.30;;;;;;5066345;28;20558;-79
2023/04/03 12:29:32;;;;;;;4.37;1.80;;;10.50;35.20;;;;;;5065924;28;20045;-78
2023/04/03 12:32:22;;;;;;;2.45;1.02;;;10.50;35.60;;;;;;4999873;28;20789;-78
2023/04/03 12:35:21;;;;;;;1.80;0.80;;;10.50;35.10;;;;;;4999971;28;20041;-79
2023/04/03 12:37:56;;;;;;;3.20;0.93;;;10.50;36.10;;;;;;4999209;28;20052;-79
2023/04/03 12:40:25;;;;;;;;;;;10.60;35.10;;;;;;5000547;28;20079;-78
2023/04/03 12:43:04;;;;;;;2.92;0.73;;;10.60;34.80;;;;;;5032717;28;20003;-78
2023/04/03 12:45:59;;;;;;;3.80;1.17;;;10.50;34.30;;;;;;5032665;28;20045;-78
2023/04/03 12:48:27;;;;;;;3.03;1.38;;;10.50;34.80;;;;;;4996466;28;20050;-79
2023/04/03 12:50:53;;;;;;;3.63;0.80;;;10.50;34.30;;;;;;4989764;28;20049;-79
2023/04/03 12:53:21;;;;;;;2.03;0.85;;;10.50;35.00;;;;;;4999254;28;20034;-78
2023/04/03 12:55:46;;;;;;;2.83;0.85;;;10.50;35.60;;;;;;5015022;28;20041;-78
2023/04/03 12:58:21;;;;;;;3.22;1.35;;;10.50;35.20;;;;;;5015725;28;20095;-78
2023/04/03 13:00:58;;;;;;;2.33;0.90;;;10.50;35.30;;;;;;4999771;28;20037;-78
2023/04/03 13:03:26;;;;;;;2.15;0.90;;;10.50;35.70;;;;;;5016041;28;20049;-78
2023/04/03 13:05:59;;;;;;;2.75;1.00;;;10.50;36.00;;;;;;5015451;28;20053;-78
2023/04/03 13:08:25;;;;;;;3.33;1.10;;;10.50;35.20;;;;;;5015870;28;20045;-78
2023/04/03 13:11:10;;;;;;;2.70;1.02;;;10.40;34.90;;;;;;5049081;28;20041;-78